createdAt,value
2023-09-16T00:01:37.522Z,16.72
2023-09-16T00:04:05.066Z,16.72
2023-09-16T00:06:31.815Z,16.74
2023-09-16T00:08:58.445Z,16.78
2023-09-16T00:11:26.723Z,16.78
2023-09-16T00:13:53.248Z,16.77
2023-09-16T00:16:20.033Z,16.76
2023-09-16T00:18:46.864Z,16.73
2023-09-16T00:21:15.559Z,16.73
2023-09-16T00:23:43.558Z,16.68
2023-09-16T00:26:10.404Z,16.63
2023-09-16T00:28:38.211Z,16.63
2023-09-16T00:31:07.498Z,16.64
2023-09-16T00:33:34.617Z,16.64
2023-09-16T00:36:01.174Z,16.60
2023-09-16T00:38:27.811Z,16.60
2023-09-16T00:40:54.421Z,16.58
2023-09-16T00:43:21.179Z,16.51
2023-09-16T00:45:47.842Z,16.51
2023-09-16T00:48:16.355Z,16.49
2023-09-16T00:50:44.150Z,16.54
2023-09-16T00:53:12.729Z,16.51
2023-09-16T00:55:39.783Z,16.46
2023-09-16T00:58:09.226Z,16.45
2023-09-16T01:00:37.441Z,16.43
2023-09-16T01:03:06.023Z,16.45
2023-09-16T01:05:35.251Z,16.41
2023-09-16T01:08:02.585Z,16.35
2023-09-16T01:10:29.150Z,16.37
2023-09-16T01:12:58.085Z,16.36
2023-09-16T01:15:28.927Z,16.33
2023-09-16T01:18:20.579Z,16.30
2023-09-16T01:20:49.249Z,16.31
2023-09-16T01:23:19.544Z,16.31
2023-09-16T01:25:46.117Z,16.30
2023-09-16T01:28:12.647Z,16.28
2023-09-16T01:30:45.466Z,16.27
2023-09-16T01:33:26.296Z,16.35
2023-09-16T01:36:01.333Z,16.40
2023-09-16T01:38:29.957Z,16.42
2023-09-16T01:40:58.295Z,16.37
2023-09-16T01:43:26.959Z,16.39
2023-09-16T01:45:54.031Z,16.34
2023-09-16T01:48:29.796Z,16.31
2023-09-16T01:51:03.511Z,16.27
2023-09-16T01:53:30.111Z,16.25
2023-09-16T01:55:56.606Z,16.23
2023-09-16T01:58:23.138Z,16.20
2023-09-16T02:00:49.712Z,16.15
2023-09-16T02:03:17.042Z,16.16
2023-09-16T02:05:43.662Z,16.14
2023-09-16T02:08:10.224Z,16.15
2023-09-16T02:10:37.547Z,16.12
2023-09-16T02:13:04.231Z,16.10
2023-09-16T02:15:31.114Z,16.05
2023-09-16T02:17:57.658Z,16.03
2023-09-16T02:20:24.339Z,15.95
2023-09-16T02:22:50.856Z,15.98
2023-09-16T02:25:17.574Z,15.94
2023-09-16T02:27:44.062Z,15.93
2023-09-16T02:30:10.904Z,15.91
2023-09-16T02:32:37.419Z,15.92
2023-09-16T02:35:04.630Z,15.88
2023-09-16T02:37:31.215Z,15.87
2023-09-16T02:39:57.877Z,15.87
2023-09-16T02:42:24.421Z,15.84
2023-09-16T02:44:52.017Z,15.83
2023-09-16T02:47:18.564Z,15.81
2023-09-16T02:49:45.273Z,15.88
2023-09-16T02:52:12.161Z,15.86
2023-09-16T02:54:38.719Z,15.87
2023-09-16T02:57:05.314Z,15.83
2023-09-16T02:59:31.823Z,15.80
2023-09-16T03:01:58.842Z,15.82
2023-09-16T03:04:25.542Z,15.80
2023-09-16T03:06:53.522Z,15.75
2023-09-16T03:09:20.634Z,15.76
2023-09-16T03:11:48.188Z,15.74
2023-09-16T03:14:15.361Z,15.73
2023-09-16T03:16:43.141Z,15.74
2023-09-16T03:19:09.802Z,15.74
2023-09-16T03:21:36.555Z,15.67
2023-09-16T03:24:05.641Z,15.71
2023-09-16T03:26:33.949Z,15.73
2023-09-16T03:29:00.616Z,15.76
2023-09-16T03:31:28.358Z,15.78
2023-09-16T03:33:58.398Z,15.78
2023-09-16T03:36:25.897Z,15.76
2023-09-16T03:38:52.798Z,15.76
2023-09-16T03:41:19.584Z,15.74
2023-09-16T03:43:53.405Z,15.73
2023-09-16T03:46:22.958Z,15.72
2023-09-16T03:48:49.834Z,15.72
2023-09-16T03:51:16.672Z,15.68
2023-09-16T03:53:43.295Z,15.68
2023-09-16T03:56:10.094Z,15.72
2023-09-16T03:58:37.889Z,15.66
2023-09-16T04:01:05.191Z,15.63
2023-09-16T04:03:32.818Z,15.62
2023-09-16T04:05:59.519Z,15.65
2023-09-16T04:08:40.620Z,15.66
2023-09-16T04:11:09.428Z,15.63
2023-09-16T04:13:37.458Z,15.59
2023-09-16T04:16:04.904Z,15.61
2023-09-16T04:18:32.192Z,15.57
2023-09-16T04:20:58.855Z,15.55
2023-09-16T04:23:26.133Z,15.50
2023-09-16T04:25:57.991Z,15.59
2023-09-16T04:28:25.980Z,15.53
2023-09-16T04:30:54.468Z,15.50
2023-09-16T04:33:23.062Z,15.48
2023-09-16T04:35:51.873Z,15.51
2023-09-16T04:38:19.959Z,15.47
2023-09-16T04:40:49.269Z,15.37
2023-09-16T04:43:16.858Z,15.28
2023-09-16T04:45:50.667Z,15.26
2023-09-16T04:48:28.663Z,15.26
2023-09-16T04:50:55.245Z,15.26
2023-09-16T04:53:21.891Z,15.28
2023-09-16T04:55:48.431Z,15.29
2023-09-16T04:58:15.118Z,15.22
2023-09-16T05:00:43.250Z,15.20
2023-09-16T05:03:11.102Z,15.18
2023-09-16T05:05:37.943Z,15.15
2023-09-16T05:08:06.090Z,15.19
2023-09-16T05:10:33.428Z,15.22
2023-09-16T05:13:00.729Z,15.18
2023-09-16T05:15:29.002Z,15.13
2023-09-16T05:17:56.121Z,15.14
2023-09-16T05:20:22.789Z,15.15
2023-09-16T05:22:51.614Z,15.17
2023-09-16T05:25:22.570Z,15.15
2023-09-16T05:27:49.726Z,15.16
2023-09-16T05:30:17.008Z,15.14
2023-09-16T05:32:45.777Z,15.16
2023-09-16T05:35:12.358Z,15.17
2023-09-16T05:37:39.087Z,15.20
2023-09-16T05:40:07.852Z,15.21
2023-09-16T05:42:34.426Z,15.21
2023-09-16T05:45:01.750Z,15.18
2023-09-16T05:47:31.816Z,15.21
2023-09-16T05:49:59.134Z,15.22
2023-09-16T05:52:25.711Z,15.25
2023-09-16T05:54:53.653Z,15.22
2023-09-16T05:57:20.269Z,15.27
2023-09-16T05:59:46.945Z,15.23
2023-09-16T06:02:13.658Z,15.21
2023-09-16T06:04:40.219Z,15.22
2023-09-16T06:07:06.837Z,15.34
2023-09-16T06:09:34.092Z,15.40
2023-09-16T06:12:01.703Z,15.37
2023-09-16T06:14:28.257Z,15.37
2023-09-16T06:16:55.785Z,15.44
2023-09-16T06:19:26.733Z,15.49
2023-09-16T06:21:54.069Z,15.53
2023-09-16T06:24:22.678Z,15.57
2023-09-16T06:26:49.786Z,15.60
2023-09-16T06:29:16.321Z,15.63
2023-09-16T06:31:42.871Z,15.65
2023-09-16T06:34:09.976Z,15.71
2023-09-16T06:36:39.966Z,15.73
2023-09-16T06:39:08.447Z,15.77
2023-09-16T06:41:35.714Z,15.86
2023-09-16T06:44:11.500Z,15.81
2023-09-16T06:46:40.596Z,15.88
2023-09-16T06:49:07.244Z,15.90
2023-09-16T06:51:33.879Z,15.95
2023-09-16T06:54:00.411Z,16.03
2023-09-16T06:56:27.038Z,16.13
2023-09-16T06:58:57.763Z,16.12
2023-09-16T07:01:25.515Z,16.12
2023-09-16T07:03:52.146Z,16.22
2023-09-16T07:06:18.717Z,16.30
2023-09-16T07:08:45.277Z,16.24
2023-09-16T07:11:13.178Z,16.32
2023-09-16T07:13:39.644Z,16.38
2023-09-16T07:16:07.599Z,16.46
2023-09-16T07:18:35.239Z,16.59
2023-09-16T07:21:01.765Z,16.70
2023-09-16T07:23:28.344Z,16.91
2023-09-16T07:25:59.669Z,17.20
2023-09-16T07:28:28.400Z,17.23
2023-09-16T07:30:56.441Z,17.25
2023-09-16T07:33:23.258Z,17.31
2023-09-16T07:35:52.387Z,17.37
2023-09-16T07:38:19.480Z,17.33
2023-09-16T07:40:46.010Z,17.40
2023-09-16T07:43:13.332Z,17.34
2023-09-16T07:45:42.649Z,17.37
2023-09-16T07:48:11.150Z,17.43
2023-09-16T07:50:37.666Z,17.53
2023-09-16T07:53:04.390Z,17.59
2023-09-16T07:55:30.930Z,17.73
2023-09-16T07:57:57.455Z,17.81
2023-09-16T08:00:23.988Z,17.82
2023-09-16T08:02:51.014Z,17.84
2023-09-16T08:05:18.095Z,17.87
2023-09-16T08:07:44.605Z,17.91
2023-09-16T08:10:11.267Z,17.91
2023-09-16T08:12:37.776Z,17.84
2023-09-16T08:15:08.328Z,17.84
2023-09-16T08:17:35.169Z,17.86
2023-09-16T08:20:01.833Z,17.91
2023-09-16T08:22:29.527Z,18.00
2023-09-16T08:24:56.054Z,18.11
2023-09-16T08:27:22.703Z,18.17
2023-09-16T08:29:51.436Z,18.27
2023-09-16T08:32:18.016Z,18.28
2023-09-16T08:34:45.044Z,18.31
2023-09-16T08:37:14.737Z,18.37
2023-09-16T08:39:41.289Z,18.43
2023-09-16T08:42:25.494Z,18.50
2023-09-16T08:44:54.550Z,18.64
2023-09-16T08:47:49.767Z,18.77
2023-09-16T08:50:18.371Z,18.90
2023-09-16T08:52:50.876Z,18.95
2023-09-16T08:55:19.342Z,18.93
2023-09-16T08:58:02.345Z,18.94
2023-09-16T09:00:29.053Z,19.10
2023-09-16T09:02:56.318Z,19.14
2023-09-16T09:05:24.854Z,19.22
2023-09-16T09:07:51.919Z,19.43
2023-09-16T09:10:18.941Z,19.56
2023-09-16T09:12:46.046Z,19.66
2023-09-16T09:15:14.878Z,19.68
2023-09-16T09:17:49.853Z,19.70
2023-09-16T09:20:21.448Z,19.70
2023-09-16T09:22:50.191Z,19.78
2023-09-16T09:25:22.675Z,20.00
2023-09-16T09:27:54.430Z,20.16
2023-09-16T09:30:27.827Z,20.22
2023-09-16T09:32:58.798Z,20.23
2023-09-16T09:35:27.397Z,20.34
2023-09-16T09:37:54.186Z,20.53
2023-09-16T09:40:23.135Z,20.61
2023-09-16T09:42:51.863Z,20.81
2023-09-16T09:45:21.883Z,21.04
2023-09-16T09:47:50.894Z,21.15
2023-09-16T09:50:19.782Z,21.34
2023-09-16T09:52:47.938Z,21.47
2023-09-16T09:55:22.677Z,21.47
2023-09-16T09:57:53.687Z,21.44
2023-09-16T10:00:22.240Z,21.62
2023-09-16T10:02:49.477Z,21.69
2023-09-16T10:05:24.220Z,21.64
2023-09-16T10:07:52.820Z,21.77
2023-09-16T10:10:22.012Z,21.93
2023-09-16T10:12:54.414Z,22.00
2023-09-16T10:15:29.713Z,22.07
2023-09-16T10:17:57.812Z,22.13
2023-09-16T10:20:24.616Z,22.14
2023-09-16T10:22:52.423Z,22.03
2023-09-16T10:25:19.368Z,22.12
2023-09-16T10:27:58.147Z,22.08
2023-09-16T10:30:26.049Z,22.21
2023-09-16T10:32:54.537Z,22.44
2023-09-16T10:35:21.369Z,22.58
2023-09-16T10:37:52.005Z,22.66
2023-09-16T10:40:20.747Z,22.76
2023-09-16T10:42:48.306Z,22.80
2023-09-16T10:45:17.212Z,23.01
2023-09-16T10:47:43.945Z,23.06
2023-09-16T10:50:11.136Z,23.20
2023-09-16T10:52:53.251Z,23.26
2023-09-16T10:55:35.420Z,23.48
2023-09-16T10:58:36.362Z,23.84
2023-09-16T11:01:03.833Z,23.91
2023-09-16T11:03:33.366Z,24.10
2023-09-16T11:06:02.476Z,24.49
2023-09-16T11:08:29.815Z,24.97
2023-09-16T11:10:59.629Z,25.11
2023-09-16T11:13:29.018Z,25.42
2023-09-16T11:16:00.093Z,25.35
2023-09-16T11:18:26.860Z,25.25
2023-09-16T11:20:54.674Z,25.12
2023-09-16T11:23:22.904Z,25.34
2023-09-16T11:25:49.579Z,25.88
2023-09-16T11:28:19.527Z,26.10
2023-09-16T11:30:55.415Z,26.50
2023-09-16T11:33:29.489Z,26.74
2023-09-16T11:36:13.848Z,26.73
2023-09-16T11:38:54.047Z,26.81
2023-09-16T11:41:20.637Z,27.09
2023-09-16T11:43:47.600Z,27.27
2023-09-16T11:46:14.661Z,27.17
2023-09-16T11:48:55.920Z,27.40
2023-09-16T11:51:26.700Z,27.59
2023-09-16T11:53:54.921Z,27.21
2023-09-16T11:56:24.295Z,27.21
2023-09-16T11:58:51.491Z,27.52
2023-09-16T12:01:23.623Z,27.79
2023-09-16T12:03:50.945Z,28.03
2023-09-16T12:06:19.095Z,27.87
2023-09-16T12:08:46.508Z,27.89
2023-09-16T12:11:13.070Z,28.10
2023-09-16T12:13:42.806Z,28.20
2023-09-16T12:16:10.876Z,28.28
2023-09-16T12:18:37.769Z,28.49
2023-09-16T12:21:06.732Z,28.41
2023-09-16T12:23:33.594Z,28.50
2023-09-16T12:26:00.112Z,28.91
2023-09-16T12:28:27.453Z,28.95
2023-09-16T12:30:58.765Z,28.58
2023-09-16T12:33:41.219Z,28.28
2023-09-16T12:36:08.253Z,27.98
2023-09-16T12:38:38.089Z,27.74
2023-09-16T12:41:05.123Z,27.60
2023-09-16T12:43:33.081Z,27.58
2023-09-16T12:46:01.818Z,27.53
2023-09-16T12:48:30.167Z,27.49
2023-09-16T12:50:57.275Z,27.34
2023-09-16T12:53:28.079Z,27.43
2023-09-16T12:55:55.173Z,27.42
2023-09-16T12:58:23.200Z,27.39
2023-09-16T13:00:50.938Z,27.40
2023-09-16T13:03:18.296Z,27.42
2023-09-16T13:05:52.335Z,27.36
2023-09-16T13:08:21.169Z,27.24
2023-09-16T13:10:49.546Z,27.36
2023-09-16T13:13:17.616Z,27.36
2023-09-16T13:15:46.251Z,27.05
2023-09-16T13:18:13.502Z,26.95
2023-09-16T13:20:43.733Z,26.99
2023-09-16T13:23:25.906Z,27.06
2023-09-16T13:26:11.257Z,27.13
2023-09-16T13:28:37.778Z,27.00
2023-09-16T13:31:04.602Z,26.96
2023-09-16T13:34:06.781Z,27.02
2023-09-16T13:36:41.882Z,27.22
2023-09-16T13:39:11.210Z,27.18
2023-09-16T13:41:40.250Z,27.23
2023-09-16T13:44:09.248Z,27.22
2023-09-16T13:46:35.804Z,27.11
2023-09-16T13:49:02.604Z,27.14
2023-09-16T13:51:29.157Z,27.12
2023-09-16T13:53:55.622Z,27.07
2023-09-16T13:56:24.916Z,27.19
2023-09-16T13:58:51.950Z,27.23
2023-09-16T14:01:18.987Z,27.29
2023-09-16T14:03:45.760Z,27.42
2023-09-16T14:06:12.422Z,27.42
2023-09-16T14:08:39.091Z,27.46
2023-09-16T14:11:05.668Z,27.54
2023-09-16T14:13:32.396Z,27.63
2023-09-16T14:15:58.965Z,27.77
2023-09-16T14:18:26.654Z,27.84
2023-09-16T14:20:53.200Z,27.92
2023-09-16T14:23:19.822Z,28.15
2023-09-16T14:25:46.688Z,28.28
2023-09-16T14:28:13.362Z,28.38
2023-09-16T14:30:39.911Z,28.53
2023-09-16T14:33:06.949Z,28.65
2023-09-16T14:35:34.233Z,28.85
2023-09-16T14:38:04.575Z,28.89
2023-09-16T14:40:32.842Z,29.03
2023-09-16T14:43:00.857Z,29.16
2023-09-16T14:45:27.500Z,29.09
2023-09-16T14:47:54.029Z,29.27
2023-09-16T14:50:20.676Z,29.51
2023-09-16T14:52:47.285Z,29.51
2023-09-16T14:55:14.342Z,29.57
2023-09-16T14:57:40.836Z,29.75
2023-09-16T15:00:09.591Z,29.58
2023-09-16T15:02:37.358Z,29.45
2023-09-16T15:05:07.997Z,29.28
2023-09-16T15:07:34.559Z,29.35
2023-09-16T15:10:01.271Z,29.20
2023-09-16T15:12:27.903Z,29.37
2023-09-16T15:14:54.592Z,29.42
2023-09-16T15:17:21.104Z,29.27
2023-09-16T15:19:48.087Z,29.15
2023-09-16T15:22:14.594Z,29.27
2023-09-16T15:24:41.299Z,29.53
2023-09-16T15:27:07.775Z,29.85
2023-09-16T15:29:34.371Z,30.30
2023-09-16T15:32:29.704Z,30.63
2023-09-16T15:34:47.453Z,31.01
2023-09-16T15:37:14.625Z,31.04
2023-09-16T15:39:41.326Z,31.30
2023-09-16T15:42:07.890Z,31.34
2023-09-16T15:44:34.386Z,31.42
2023-09-16T15:47:02.612Z,31.49
2023-09-16T15:49:30.279Z,31.20
2023-09-16T15:51:57.084Z,31.00
2023-09-16T15:54:26.071Z,30.69
2023-09-16T15:56:53.696Z,30.70
2023-09-16T15:59:20.285Z,30.70
2023-09-16T16:01:46.983Z,30.41
2023-09-16T16:04:13.581Z,30.22
2023-09-16T16:06:41.165Z,29.97
2023-09-16T16:09:07.769Z,30.11
2023-09-16T16:11:34.468Z,30.47
2023-09-16T16:14:01.100Z,29.71
2023-09-16T16:16:27.849Z,28.84
2023-09-16T16:18:54.489Z,28.50
2023-09-16T16:21:21.098Z,28.10
2023-09-16T16:23:48.201Z,27.57
2023-09-16T16:26:16.362Z,27.25
2023-09-16T16:28:43.027Z,27.01
2023-09-16T16:31:09.738Z,26.85
2023-09-16T16:33:36.434Z,26.66
2023-09-16T16:36:04.120Z,26.49
2023-09-16T16:38:31.046Z,26.25
2023-09-16T16:40:57.973Z,26.20
2023-09-16T16:43:24.691Z,26.02
2023-09-16T16:45:51.331Z,25.70
2023-09-16T16:48:18.743Z,25.50
2023-09-16T16:50:45.546Z,25.22
2023-09-16T16:53:12.046Z,25.16
2023-09-16T16:55:38.542Z,24.97
2023-09-16T16:58:05.050Z,24.87
2023-09-16T17:00:31.593Z,24.85
2023-09-16T17:02:58.235Z,24.64
2023-09-16T17:05:27.320Z,24.52
2023-09-16T17:07:59.946Z,24.39
2023-09-16T17:10:26.705Z,24.23
2023-09-16T17:12:53.197Z,24.10
2023-09-16T17:15:19.695Z,23.84
2023-09-16T17:17:46.663Z,23.61
2023-09-16T17:20:14.917Z,23.51
2023-09-16T17:22:41.455Z,23.58
2023-09-16T17:25:08.351Z,23.53
2023-09-16T17:27:34.878Z,23.33
2023-09-16T17:30:02.497Z,23.29
2023-09-16T17:32:29.201Z,23.18
2023-09-16T17:34:55.802Z,23.05
2023-09-16T17:37:22.448Z,22.95
2023-09-16T17:39:48.979Z,22.94
2023-09-16T17:42:15.445Z,22.73
2023-09-16T17:44:41.954Z,22.74
2023-09-16T17:47:08.460Z,22.60
2023-09-16T17:49:35.013Z,22.59
2023-09-16T17:52:01.573Z,22.60
2023-09-16T17:54:28.110Z,22.58
2023-09-16T17:56:54.769Z,22.61
2023-09-16T17:59:22.102Z,22.58
2023-09-16T18:01:48.831Z,22.55
2023-09-16T18:04:15.433Z,22.63
2023-09-16T18:06:42.567Z,22.45
2023-09-16T18:09:11.802Z,22.33
2023-09-16T18:11:38.352Z,22.24
2023-09-16T18:14:05.461Z,22.26
2023-09-16T18:16:35.098Z,22.30
2023-09-16T18:19:01.663Z,22.30
2023-09-16T18:21:28.412Z,22.24
2023-09-16T18:23:54.919Z,22.16
2023-09-16T18:26:21.530Z,22.16
2023-09-16T18:28:48.207Z,22.15
2023-09-16T18:31:16.922Z,22.11
2023-09-16T18:33:44.369Z,22.11
2023-09-16T18:36:11.337Z,22.14
2023-09-16T18:38:40.351Z,22.03
2023-09-16T18:41:06.902Z,21.97
2023-09-16T18:43:34.488Z,21.91
2023-09-16T18:46:03.476Z,21.83
2023-09-16T18:48:30.154Z,21.73
2023-09-16T18:50:56.752Z,21.65
2023-09-16T18:53:24.247Z,21.66
2023-09-16T18:55:50.734Z,21.72
2023-09-16T18:58:17.297Z,21.72
2023-09-16T19:00:44.229Z,21.74
2023-09-16T19:03:11.158Z,21.68
2023-09-16T19:05:41.601Z,21.68
2023-09-16T19:08:09.901Z,21.67
2023-09-16T19:10:38.238Z,21.69
2023-09-16T19:13:05.036Z,21.72
2023-09-16T19:15:33.109Z,21.68
2023-09-16T19:17:59.971Z,21.64
2023-09-16T19:20:26.616Z,21.55
2023-09-16T19:22:53.713Z,21.35
2023-09-16T19:25:20.307Z,21.28
2023-09-16T19:27:46.859Z,21.31
2023-09-16T19:30:13.749Z,21.36
2023-09-16T19:32:40.239Z,21.32
2023-09-16T19:35:07.386Z,21.24
2023-09-16T19:37:33.912Z,21.17
2023-09-16T19:40:02.484Z,21.21
2023-09-16T19:42:29.360Z,21.19
2023-09-16T19:44:56.204Z,21.18
2023-09-16T19:47:25.329Z,21.09
2023-09-16T19:49:54.433Z,21.10
2023-09-16T19:52:21.073Z,21.06
2023-09-16T19:54:47.599Z,20.97
2023-09-16T19:57:14.243Z,20.86
2023-09-16T19:59:40.909Z,20.87
2023-09-16T20:02:07.478Z,20.80
2023-09-16T20:04:34.099Z,20.69
2023-09-16T20:07:01.813Z,20.64
2023-09-16T20:09:29.177Z,20.56
2023-09-16T20:11:55.802Z,20.53
2023-09-16T20:14:22.280Z,20.51
2023-09-16T20:16:48.914Z,20.54
2023-09-16T20:19:19.659Z,20.38
2023-09-16T20:21:47.593Z,20.30
2023-09-16T20:24:14.084Z,20.26
2023-09-16T20:26:40.847Z,20.36
2023-09-16T20:29:07.334Z,20.34
2023-09-16T20:31:34.124Z,20.33
2023-09-16T20:34:10.026Z,20.27
2023-09-16T20:36:38.070Z,20.23
2023-09-16T20:39:07.752Z,20.19
2023-09-16T20:41:34.325Z,20.06
2023-09-16T20:44:02.585Z,19.92
2023-09-16T20:46:29.945Z,19.80
2023-09-16T20:48:56.674Z,19.80
2023-09-16T20:51:23.125Z,19.81
2023-09-16T20:53:49.893Z,19.79
2023-09-16T20:56:16.608Z,19.68
2023-09-16T20:58:44.019Z,19.71
2023-09-16T21:01:10.815Z,19.66
2023-09-16T21:03:38.533Z,19.54
2023-09-16T21:06:05.282Z,19.49
2023-09-16T21:08:31.941Z,19.41
2023-09-16T21:10:58.407Z,19.41
2023-09-16T21:13:24.949Z,19.37
2023-09-16T21:15:52.140Z,19.31
2023-09-16T21:18:18.949Z,19.28
2023-09-16T21:20:45.384Z,19.24
2023-09-16T21:23:12.551Z,19.21
2023-09-16T21:25:40.630Z,19.16
2023-09-16T21:28:08.089Z,19.14
2023-09-16T21:30:34.838Z,19.06
2023-09-16T21:33:01.652Z,19.03
2023-09-16T21:35:29.910Z,18.97
2023-09-16T21:37:56.770Z,18.91
2023-09-16T21:40:24.326Z,18.60
2023-09-16T21:42:52.314Z,18.30
2023-09-16T21:45:19.067Z,18.07
2023-09-16T21:47:45.721Z,18.05
2023-09-16T21:50:12.422Z,18.19
2023-09-16T21:52:38.921Z,18.16
2023-09-16T21:55:05.904Z,18.32
2023-09-16T21:57:32.459Z,18.14
2023-09-16T21:59:58.960Z,18.28
2023-09-16T22:02:25.463Z,18.15
2023-09-16T22:04:52.588Z,18.07
2023-09-16T22:07:19.086Z,18.25
2023-09-16T22:09:47.235Z,18.29
2023-09-16T22:12:13.729Z,18.31
2023-09-16T22:14:40.233Z,18.34
2023-09-16T22:17:06.736Z,18.40
2023-09-16T22:19:33.300Z,18.41
2023-09-16T22:22:01.279Z,18.35
2023-09-16T22:24:27.805Z,18.39
2023-09-16T22:26:54.421Z,18.40
2023-09-16T22:29:20.953Z,18.25
2023-09-16T22:31:48.591Z,18.26
2023-09-16T22:34:15.099Z,18.26
2023-09-16T22:36:41.697Z,18.25
2023-09-16T22:39:09.388Z,18.25
2023-09-16T22:41:36.323Z,18.22
2023-09-16T22:44:03.884Z,18.18
2023-09-16T22:46:30.479Z,18.11
2023-09-16T22:48:57.051Z,18.01
2023-09-16T22:51:23.546Z,17.84
2023-09-16T22:53:50.187Z,17.45
2023-09-16T22:56:16.865Z,17.35
2023-09-16T22:58:45.692Z,17.46
2023-09-16T23:01:12.942Z,17.58
2023-09-16T23:03:39.836Z,17.61
2023-09-16T23:06:06.406Z,17.48
2023-09-16T23:08:33.017Z,17.60
2023-09-16T23:10:59.509Z,17.62
2023-09-16T23:13:26.045Z,17.66
2023-09-16T23:15:52.711Z,17.64
2023-09-16T23:18:19.199Z,17.71
2023-09-16T23:20:58.427Z,17.69
2023-09-16T23:23:26.293Z,17.64
2023-09-16T23:25:54.468Z,17.58
2023-09-16T23:28:21.996Z,17.53
2023-09-16T23:30:48.515Z,17.47
2023-09-16T23:33:16.413Z,17.48
2023-09-16T23:35:42.947Z,17.51
2023-09-16T23:38:09.634Z,17.45
2023-09-16T23:40:36.544Z,17.08
2023-09-16T23:43:04.495Z,16.71
2023-09-16T23:45:31.141Z,16.66
2023-09-16T23:47:57.624Z,16.89
2023-09-16T23:50:24.257Z,16.99
2023-09-16T23:52:50.725Z,17.06
2023-09-16T23:55:18.411Z,17.05
2023-09-16T23:57:44.940Z,16.95
